sensor_id;sensor_type;location;lat;lon;timestamp;temperature;humidity
75161;DHT22;67232;50.096;8.716;2023-06-19T00:00:16;26.90;49.80
75161;DHT22;67232;50.096;8.716;2023-06-19T00:02:42;26.90;49.10
75161;DHT22;67232;50.096;8.716;2023-06-19T00:05:08;26.90;48.70
75161;DHT22;67232;50.096;8.716;2023-06-19T00:07:38;26.90;48.40
75161;DHT22;67232;50.096;8.716;2023-06-19T00:10:06;26.90;48.50
75161;DHT22;67232;50.096;8.716;2023-06-19T00:12:32;26.90;49.10
75161;DHT22;67232;50.096;8.716;2023-06-19T00:14:58;26.80;49.70
75161;DHT22;67232;50.096;8.716;2023-06-19T00:17:26;26.90;49.60
75161;DHT22;67232;50.096;8.716;2023-06-19T00:19:55;26.90;49.60
75161;DHT22;67232;50.096;8.716;2023-06-19T00:22:21;26.90;49.80
75161;DHT22;67232;50.096;8.716;2023-06-19T00:24:46;26.80;50.00
75161;DHT22;67232;50.096;8.716;2023-06-19T00:27:12;26.80;50.20
75161;DHT22;67232;50.096;8.716;2023-06-19T00:29:38;26.80;50.00
75161;DHT22;67232;50.096;8.716;2023-06-19T00:32:03;26.80;49.50
75161;DHT22;67232;50.096;8.716;2023-06-19T00:34:32;26.80;49.90
75161;DHT22;67232;50.096;8.716;2023-06-19T00:36:58;26.70;49.50
75161;DHT22;67232;50.096;8.716;2023-06-19T00:39:26;26.80;49.30
75161;DHT22;67232;50.096;8.716;2023-06-19T00:41:53;26.80;49.50
75161;DHT22;67232;50.096;8.716;2023-06-19T00:44:19;26.80;50.00
75161;DHT22;67232;50.096;8.716;2023-06-19T00:46:51;26.70;49.90
75161;DHT22;67232;50.096;8.716;2023-06-19T00:49:19;26.70;50.10
75161;DHT22;67232;50.096;8.716;2023-06-19T00:51:45;26.70;50.00
75161;DHT22;67232;50.096;8.716;2023-06-19T00:54:13;26.60;49.90
75161;DHT22;67232;50.096;8.716;2023-06-19T00:56:39;26.60;50.30
75161;DHT22;67232;50.096;8.716;2023-06-19T00:59:08;26.60;50.30
75161;DHT22;67232;50.096;8.716;2023-06-19T01:01:37;26.60;49.90
75161;DHT22;67232;50.096;8.716;2023-06-19T01:04:03;26.60;49.50
75161;DHT22;67232;50.096;8.716;2023-06-19T01:06:48;26.50;49.90
75161;DHT22;67232;50.096;8.716;2023-06-19T01:09:16;26.40;50.60
75161;DHT22;67232;50.096;8.716;2023-06-19T01:11:47;26.40;49.70
75161;DHT22;67232;50.096;8.716;2023-06-19T01:14:20;26.30;50.40
75161;DHT22;67232;50.096;8.716;2023-06-19T01:16:47;26.30;50.80
75161;DHT22;67232;50.096;8.716;2023-06-19T01:19:18;26.30;50.30
75161;DHT22;67232;50.096;8.716;2023-06-19T01:21:45;26.30;50.60
75161;DHT22;67232;50.096;8.716;2023-06-19T01:24:11;26.30;51.10
75161;DHT22;67232;50.096;8.716;2023-06-19T01:26:36;26.20;51.50
75161;DHT22;67232;50.096;8.716;2023-06-19T01:29:03;26.20;51.10
75161;DHT22;67232;50.096;8.716;2023-06-19T01:31:44;26.10;51.70
75161;DHT22;67232;50.096;8.716;2023-06-19T01:34:12;26.10;51.90
75161;DHT22;67232;50.096;8.716;2023-06-19T01:36:42;26.10;51.40
75161;DHT22;67232;50.096;8.716;2023-06-19T01:39:08;26.00;51.50
75161;DHT22;67232;50.096;8.716;2023-06-19T01:41:40;25.90;51.70
75161;DHT22;67232;50.096;8.716;2023-06-19T01:44:08;25.80;52.20
75161;DHT22;67232;50.096;8.716;2023-06-19T01:46:34;25.80;52.30
75161;DHT22;67232;50.096;8.716;2023-06-19T01:49:00;25.80;52.60
75161;DHT22;67232;50.096;8.716;2023-06-19T01:51:27;25.80;52.10
75161;DHT22;67232;50.096;8.716;2023-06-19T01:53:53;25.90;52.10
75161;DHT22;67232;50.096;8.716;2023-06-19T01:56:18;25.80;52.80
75161;DHT22;67232;50.096;8.716;2023-06-19T01:58:46;25.80;53.10
75161;DHT22;67232;50.096;8.716;2023-06-19T02:01:12;25.70;53.10
75161;DHT22;67232;50.096;8.716;2023-06-19T02:03:37;25.60;53.30
75161;DHT22;67232;50.096;8.716;2023-06-19T02:06:05;25.60;53.30
75161;DHT22;67232;50.096;8.716;2023-06-19T02:08:32;25.50;53.50
75161;DHT22;67232;50.096;8.716;2023-06-19T02:10:57;25.50;53.60
75161;DHT22;67232;50.096;8.716;2023-06-19T02:13:23;25.50;53.50
75161;DHT22;67232;50.096;8.716;2023-06-19T02:15:49;25.40;53.30
75161;DHT22;67232;50.096;8.716;2023-06-19T02:18:17;25.40;53.60
75161;DHT22;67232;50.096;8.716;2023-06-19T02:20:42;25.40;53.80
75161;DHT22;67232;50.096;8.716;2023-06-19T02:23:08;25.30;54.20
75161;DHT22;67232;50.096;8.716;2023-06-19T02:25:36;25.30;54.10
75161;DHT22;67232;50.096;8.716;2023-06-19T02:28:01;25.20;54.20
75161;DHT22;67232;50.096;8.716;2023-06-19T02:30:28;25.30;54.60
75161;DHT22;67232;50.096;8.716;2023-06-19T02:32:54;25.30;54.50
75161;DHT22;67232;50.096;8.716;2023-06-19T02:35:26;25.20;54.80
75161;DHT22;67232;50.096;8.716;2023-06-19T02:37:52;25.20;54.80
75161;DHT22;67232;50.096;8.716;2023-06-19T02:40:17;25.20;55.20
75161;DHT22;67232;50.096;8.716;2023-06-19T02:42:43;25.10;55.40
75161;DHT22;67232;50.096;8.716;2023-06-19T02:45:09;25.10;55.60
75161;DHT22;67232;50.096;8.716;2023-06-19T02:47:34;25.10;55.80
75161;DHT22;67232;50.096;8.716;2023-06-19T02:50:02;25.00;55.90
75161;DHT22;67232;50.096;8.716;2023-06-19T02:52:31;24.90;56.40
75161;DHT22;67232;50.096;8.716;2023-06-19T02:54:56;24.90;56.70
75161;DHT22;67232;50.096;8.716;2023-06-19T02:57:22;24.80;56.80
75161;DHT22;67232;50.096;8.716;2023-06-19T02:59:47;24.80;57.00
75161;DHT22;67232;50.096;8.716;2023-06-19T03:02:15;24.70;57.50
75161;DHT22;67232;50.096;8.716;2023-06-19T03:04:41;24.70;57.60
75161;DHT22;67232;50.096;8.716;2023-06-19T03:07:09;24.70;57.80
75161;DHT22;67232;50.096;8.716;2023-06-19T03:09:39;24.70;58.00
75161;DHT22;67232;50.096;8.716;2023-06-19T03:12:07;24.60;57.90
75161;DHT22;67232;50.096;8.716;2023-06-19T03:14:35;24.70;58.10
75161;DHT22;67232;50.096;8.716;2023-06-19T03:17:00;24.70;58.20
75161;DHT22;67232;50.096;8.716;2023-06-19T03:19:28;24.60;58.00
75161;DHT22;67232;50.096;8.716;2023-06-19T03:21:56;24.60;58.10
75161;DHT22;67232;50.096;8.716;2023-06-19T03:24:21;24.60;57.70
75161;DHT22;67232;50.096;8.716;2023-06-19T03:26:47;24.60;57.40
75161;DHT22;67232;50.096;8.716;2023-06-19T03:29:15;24.70;56.90
75161;DHT22;67232;50.096;8.716;2023-06-19T03:31:45;24.80;56.60
75161;DHT22;67232;50.096;8.716;2023-06-19T03:34:12;24.90;56.50
75161;DHT22;67232;50.096;8.716;2023-06-19T03:36:37;24.90;56.40
75161;DHT22;67232;50.096;8.716;2023-06-19T03:39:04;25.00;56.20
75161;DHT22;67232;50.096;8.716;2023-06-19T03:41:32;24.90;56.40
75161;DHT22;67232;50.096;8.716;2023-06-19T03:43:59;24.90;56.30
75161;DHT22;67232;50.096;8.716;2023-06-19T03:46:30;24.90;56.20
75161;DHT22;67232;50.096;8.716;2023-06-19T03:48:55;24.90;56.30
75161;DHT22;67232;50.096;8.716;2023-06-19T03:51:21;24.90;56.00
75161;DHT22;67232;50.096;8.716;2023-06-19T03:53:46;24.90;56.00
75161;DHT22;67232;50.096;8.716;2023-06-19T03:56:12;24.90;56.00
75161;DHT22;67232;50.096;8.716;2023-06-19T03:58:42;24.90;56.10
75161;DHT22;67232;50.096;8.716;2023-06-19T04:01:10;25.00;56.10
75161;DHT22;67232;50.096;8.716;2023-06-19T04:03:40;25.00;56.10
75161;DHT22;67232;50.096;8.716;2023-06-19T04:06:05;25.00;56.30
75161;DHT22;67232;50.096;8.716;2023-06-19T04:08:36;25.00;56.30
75161;DHT22;67232;50.096;8.716;2023-06-19T04:11:01;25.00;56.30
75161;DHT22;67232;50.096;8.716;2023-06-19T04:13:29;24.90;56.70
75161;DHT22;67232;50.096;8.716;2023-06-19T04:15:57;24.90;56.90
75161;DHT22;67232;50.096;8.716;2023-06-19T04:18:25;24.90;57.10
75161;DHT22;67232;50.096;8.716;2023-06-19T04:20:53;24.90;57.40
75161;DHT22;67232;50.096;8.716;2023-06-19T04:23:21;25.00;57.30
75161;DHT22;67232;50.096;8.716;2023-06-19T04:25:50;25.00;57.50
75161;DHT22;67232;50.096;8.716;2023-06-19T04:28:23;25.00;57.70
75161;DHT22;67232;50.096;8.716;2023-06-19T04:30:51;25.00;58.00
75161;DHT22;67232;50.096;8.716;2023-06-19T04:33:27;25.00;58.60
75161;DHT22;67232;50.096;8.716;2023-06-19T04:35:56;25.10;59.20
75161;DHT22;67232;50.096;8.716;2023-06-19T04:38:22;25.10;59.40
75161;DHT22;67232;50.096;8.716;2023-06-19T04:40:51;25.20;59.50
75161;DHT22;67232;50.096;8.716;2023-06-19T04:43:17;25.10;60.00
75161;DHT22;67232;50.096;8.716;2023-06-19T04:45:42;25.10;60.30
75161;DHT22;67232;50.096;8.716;2023-06-19T04:48:08;25.00;60.40
75161;DHT22;67232;50.096;8.716;2023-06-19T04:50:36;25.00;60.10
75161;DHT22;67232;50.096;8.716;2023-06-19T04:53:07;25.00;60.10
75161;DHT22;67232;50.096;8.716;2023-06-19T04:55:32;25.10;59.50
75161;DHT22;67232;50.096;8.716;2023-06-19T04:57:58;25.20;59.50
75161;DHT22;67232;50.096;8.716;2023-06-19T05:00:24;25.20;59.20
75161;DHT22;67232;50.096;8.716;2023-06-19T05:02:52;25.10;59.10
75161;DHT22;67232;50.096;8.716;2023-06-19T05:05:30;25.00;59.20
75161;DHT22;67232;50.096;8.716;2023-06-19T05:07:55;25.00;59.60
75161;DHT22;67232;50.096;8.716;2023-06-19T05:10:23;25.00;59.70
75161;DHT22;67232;50.096;8.716;2023-06-19T05:12:51;24.90;60.10
75161;DHT22;67232;50.096;8.716;2023-06-19T05:15:17;24.90;60.10
75161;DHT22;67232;50.096;8.716;2023-06-19T05:17:42;24.80;60.30
75161;DHT22;67232;50.096;8.716;2023-06-19T05:20:13;24.80;60.40
75161;DHT22;67232;50.096;8.716;2023-06-19T05:22:41;24.80;60.10
75161;DHT22;67232;50.096;8.716;2023-06-19T05:25:07;24.80;60.60
75161;DHT22;67232;50.096;8.716;2023-06-19T05:27:32;24.80;60.30
75161;DHT22;67232;50.096;8.716;2023-06-19T05:30:00;24.80;60.40
75161;DHT22;67232;50.096;8.716;2023-06-19T05:32:29;24.90;60.40
75161;DHT22;67232;50.096;8.716;2023-06-19T05:34:55;24.90;60.10
75161;DHT22;67232;50.096;8.716;2023-06-19T05:37:20;24.90;60.30
75161;DHT22;67232;50.096;8.716;2023-06-19T05:39:50;25.00;60.20
75161;DHT22;67232;50.096;8.716;2023-06-19T05:42:20;25.10;60.30
75161;DHT22;67232;50.096;8.716;2023-06-19T05:44:45;25.10;60.10
75161;DHT22;67232;50.096;8.716;2023-06-19T05:47:14;25.10;60.50
75161;DHT22;67232;50.096;8.716;2023-06-19T05:49:42;25.10;60.40
75161;DHT22;67232;50.096;8.716;2023-06-19T05:52:10;25.20;60.10
75161;DHT22;67232;50.096;8.716;2023-06-19T05:54:38;25.20;60.20
75161;DHT22;67232;50.096;8.716;2023-06-19T05:57:06;25.20;60.20
75161;DHT22;67232;50.096;8.716;2023-06-19T05:59:34;25.20;60.20
75161;DHT22;67232;50.096;8.716;2023-06-19T06:01:59;25.10;60.40
75161;DHT22;67232;50.096;8.716;2023-06-19T06:04:27;25.20;60.30
75161;DHT22;67232;50.096;8.716;2023-06-19T06:06:52;25.20;60.40
75161;DHT22;67232;50.096;8.716;2023-06-19T06:09:18;25.30;60.30
75161;DHT22;67232;50.096;8.716;2023-06-19T06:11:46;25.30;60.30
75161;DHT22;67232;50.096;8.716;2023-06-19T06:14:11;25.40;60.40
75161;DHT22;67232;50.096;8.716;2023-06-19T06:16:39;25.30;60.80
75161;DHT22;67232;50.096;8.716;2023-06-19T06:19:07;25.50;60.50
75161;DHT22;67232;50.096;8.716;2023-06-19T06:21:33;25.50;60.50
75161;DHT22;67232;50.096;8.716;2023-06-19T06:24:04;25.60;61.00
75161;DHT22;67232;50.096;8.716;2023-06-19T06:26:33;25.60;60.40
75161;DHT22;67232;50.096;8.716;2023-06-19T06:29:01;25.70;60.20
75161;DHT22;67232;50.096;8.716;2023-06-19T06:31:26;25.70;60.20
75161;DHT22;67232;50.096;8.716;2023-06-19T06:33:57;25.60;60.60
75161;DHT22;67232;50.096;8.716;2023-06-19T06:36:22;25.60;60.60
75161;DHT22;67232;50.096;8.716;2023-06-19T06:38:50;25.80;60.60
75161;DHT22;67232;50.096;8.716;2023-06-19T06:41:18;25.80;60.30
75161;DHT22;67232;50.096;8.716;2023-06-19T06:43:44;25.80;60.70
75161;DHT22;67232;50.096;8.716;2023-06-19T06:46:13;25.90;60.40
75161;DHT22;67232;50.096;8.716;2023-06-19T06:48:42;25.90;60.60
75161;DHT22;67232;50.096;8.716;2023-06-19T06:51:10;26.20;60.00
75161;DHT22;67232;50.096;8.716;2023-06-19T06:53:36;26.20;59.60
75161;DHT22;67232;50.096;8.716;2023-06-19T06:56:04;26.40;59.00
75161;DHT22;67232;50.096;8.716;2023-06-19T06:58:29;26.40;58.30
75161;DHT22;67232;50.096;8.716;2023-06-19T07:00:57;26.40;58.30
75161;DHT22;67232;50.096;8.716;2023-06-19T07:03:22;26.40;58.60
75161;DHT22;67232;50.096;8.716;2023-06-19T07:05:48;26.60;58.10
75161;DHT22;67232;50.096;8.716;2023-06-19T07:08:14;26.60;58.60
75161;DHT22;67232;50.096;8.716;2023-06-19T07:10:40;26.60;58.50
75161;DHT22;67232;50.096;8.716;2023-06-19T07:13:08;26.80;58.70
75161;DHT22;67232;50.096;8.716;2023-06-19T07:15:36;27.00;58.00
75161;DHT22;67232;50.096;8.716;2023-06-19T07:18:04;27.10;57.50
75161;DHT22;67232;50.096;8.716;2023-06-19T07:20:29;27.10;57.70
75161;DHT22;67232;50.096;8.716;2023-06-19T07:22:55;27.30;57.20
75161;DHT22;67232;50.096;8.716;2023-06-19T07:25:20;27.30;57.10
75161;DHT22;67232;50.096;8.716;2023-06-19T07:27:51;27.40;57.60
75161;DHT22;67232;50.096;8.716;2023-06-19T07:30:17;27.60;57.00
75161;DHT22;67232;50.096;8.716;2023-06-19T07:32:43;27.60;56.50
75161;DHT22;67232;50.096;8.716;2023-06-19T07:35:14;27.60;57.00
75161;DHT22;67232;50.096;8.716;2023-06-19T07:37:39;27.60;57.00
75161;DHT22;67232;50.096;8.716;2023-06-19T07:40:08;27.60;56.30
75161;DHT22;67232;50.096;8.716;2023-06-19T07:42:33;27.60;56.60
75161;DHT22;67232;50.096;8.716;2023-06-19T07:44:59;27.60;56.60
75161;DHT22;67232;50.096;8.716;2023-06-19T07:47:26;27.50;56.90
75161;DHT22;67232;50.096;8.716;2023-06-19T07:49:52;27.60;56.10
75161;DHT22;67232;50.096;8.716;2023-06-19T07:52:17;27.50;56.60
75161;DHT22;67232;50.096;8.716;2023-06-19T07:54:54;27.60;56.30
75161;DHT22;67232;50.096;8.716;2023-06-19T07:57:21;27.80;56.30
75161;DHT22;67232;50.096;8.716;2023-06-19T07:59:48;27.90;56.50
75161;DHT22;67232;50.096;8.716;2023-06-19T08:02:13;27.90;56.70
75161;DHT22;67232;50.096;8.716;2023-06-19T08:04:39;27.90;56.20
75161;DHT22;67232;50.096;8.716;2023-06-19T08:07:05;27.90;56.10
75161;DHT22;67232;50.096;8.716;2023-06-19T08:09:33;28.00;56.40
75161;DHT22;67232;50.096;8.716;2023-06-19T08:12:06;27.90;57.00
75161;DHT22;67232;50.096;8.716;2023-06-19T08:14:31;28.10;56.70
75161;DHT22;67232;50.096;8.716;2023-06-19T08:16:57;28.00;56.40
75161;DHT22;67232;50.096;8.716;2023-06-19T08:19:22;27.90;57.30
75161;DHT22;67232;50.096;8.716;2023-06-19T08:21:48;27.90;57.30
75161;DHT22;67232;50.096;8.716;2023-06-19T08:24:14;27.90;56.80
75161;DHT22;67232;50.096;8.716;2023-06-19T08:26:42;27.80;56.60
75161;DHT22;67232;50.096;8.716;2023-06-19T08:29:08;27.70;56.60
75161;DHT22;67232;50.096;8.716;2023-06-19T08:31:33;27.70;56.60
75161;DHT22;67232;50.096;8.716;2023-06-19T08:34:03;27.80;57.00
75161;DHT22;67232;50.096;8.716;2023-06-19T08:36:33;28.00;56.30
75161;DHT22;67232;50.096;8.716;2023-06-19T08:38:59;28.10;56.30
75161;DHT22;67232;50.096;8.716;2023-06-19T08:41:25;28.20;55.30
75161;DHT22;67232;50.096;8.716;2023-06-19T08:43:50;28.40;55.10
75161;DHT22;67232;50.096;8.716;2023-06-19T08:46:17;28.60;54.90
75161;DHT22;67232;50.096;8.716;2023-06-19T08:48:46;28.70;54.90
75161;DHT22;67232;50.096;8.716;2023-06-19T08:51:14;28.60;55.10
75161;DHT22;67232;50.096;8.716;2023-06-19T08:53:47;28.70;54.60
75161;DHT22;67232;50.096;8.716;2023-06-19T08:56:13;28.80;55.10
75161;DHT22;67232;50.096;8.716;2023-06-19T08:58:39;28.90;54.60
75161;DHT22;67232;50.096;8.716;2023-06-19T09:01:07;29.10;54.70
75161;DHT22;67232;50.096;8.716;2023-06-19T09:03:34;29.20;53.80
75161;DHT22;67232;50.096;8.716;2023-06-19T09:06:03;29.20;53.40
75161;DHT22;67232;50.096;8.716;2023-06-19T09:08:31;29.10;53.10
75161;DHT22;67232;50.096;8.716;2023-06-19T09:10:58;29.20;53.60
75161;DHT22;67232;50.096;8.716;2023-06-19T09:13:24;29.20;53.20
75161;DHT22;67232;50.096;8.716;2023-06-19T09:16:03;29.30;53.90
75161;DHT22;67232;50.096;8.716;2023-06-19T09:18:47;29.30;53.50
75161;DHT22;67232;50.096;8.716;2023-06-19T09:21:20;29.20;53.30
75161;DHT22;67232;50.096;8.716;2023-06-19T09:23:49;29.30;54.00
75161;DHT22;67232;50.096;8.716;2023-06-19T09:26:19;29.40;54.20
75161;DHT22;67232;50.096;8.716;2023-06-19T09:28:45;29.30;54.20
75161;DHT22;67232;50.096;8.716;2023-06-19T09:31:12;29.40;54.10
75161;DHT22;67232;50.096;8.716;2023-06-19T09:33:40;29.40;54.30
75161;DHT22;67232;50.096;8.716;2023-06-19T09:36:09;29.40;53.70
75161;DHT22;67232;50.096;8.716;2023-06-19T09:38:38;29.20;53.80
75161;DHT22;67232;50.096;8.716;2023-06-19T09:41:06;29.10;54.50
75161;DHT22;67232;50.096;8.716;2023-06-19T09:43:40;29.20;53.80
75161;DHT22;67232;50.096;8.716;2023-06-19T09:46:07;29.30;53.80
75161;DHT22;67232;50.096;8.716;2023-06-19T09:48:34;29.40;53.30
75161;DHT22;67232;50.096;8.716;2023-06-19T09:51:18;29.30;52.90
75161;DHT22;67232;50.096;8.716;2023-06-19T09:53:47;29.20;52.60
75161;DHT22;67232;50.096;8.716;2023-06-19T09:56:16;29.10;53.60
75161;DHT22;67232;50.096;8.716;2023-06-19T09:58:45;29.20;53.20
75161;DHT22;67232;50.096;8.716;2023-06-19T10:01:11;29.30;53.70
75161;DHT22;67232;50.096;8.716;2023-06-19T10:03:37;29.30;53.50
75161;DHT22;67232;50.096;8.716;2023-06-19T10:06:04;29.30;53.40
75161;DHT22;67232;50.096;8.716;2023-06-19T10:08:42;29.50;53.10
75161;DHT22;67232;50.096;8.716;2023-06-19T10:11:11;29.60;53.10
75161;DHT22;67232;50.096;8.716;2023-06-19T10:13:41;29.50;53.00
75161;DHT22;67232;50.096;8.716;2023-06-19T10:16:27;29.70;52.90
75161;DHT22;67232;50.096;8.716;2023-06-19T10:18:53;29.90;53.30
75161;DHT22;67232;50.096;8.716;2023-06-19T10:21:20;30.10;52.90
75161;DHT22;67232;50.096;8.716;2023-06-19T10:24:01;30.20;51.80
75161;DHT22;67232;50.096;8.716;2023-06-19T10:26:35;30.10;51.50
75161;DHT22;67232;50.096;8.716;2023-06-19T10:29:16;30.20;51.80
75161;DHT22;67232;50.096;8.716;2023-06-19T10:31:43;30.20;52.30
75161;DHT22;67232;50.096;8.716;2023-06-19T10:34:09;29.90;51.90
75161;DHT22;67232;50.096;8.716;2023-06-19T10:36:37;29.60;52.30
75161;DHT22;67232;50.096;8.716;2023-06-19T10:39:03;29.40;53.00
75161;DHT22;67232;50.096;8.716;2023-06-19T10:41:39;29.30;53.60
75161;DHT22;67232;50.096;8.716;2023-06-19T10:44:07;29.10;53.00
75161;DHT22;67232;50.096;8.716;2023-06-19T10:46:40;28.90;54.40
75161;DHT22;67232;50.096;8.716;2023-06-19T10:49:07;28.80;55.10
75161;DHT22;67232;50.096;8.716;2023-06-19T10:51:37;28.90;55.00
75161;DHT22;67232;50.096;8.716;2023-06-19T10:54:06;29.00;54.10
75161;DHT22;67232;50.096;8.716;2023-06-19T10:56:33;29.00;54.30
75161;DHT22;67232;50.096;8.716;2023-06-19T10:59:07;29.10;53.40
75161;DHT22;67232;50.096;8.716;2023-06-19T11:01:39;29.00;54.30
75161;DHT22;67232;50.096;8.716;2023-06-19T11:04:07;28.80;54.80
75161;DHT22;67232;50.096;8.716;2023-06-19T11:06:33;28.80;54.80
75161;DHT22;67232;50.096;8.716;2023-06-19T11:09:00;28.80;54.90
75161;DHT22;67232;50.096;8.716;2023-06-19T11:11:45;28.90;54.90
75161;DHT22;67232;50.096;8.716;2023-06-19T11:14:13;28.90;55.50
75161;DHT22;67232;50.096;8.716;2023-06-19T11:16:44;29.00;54.10
75161;DHT22;67232;50.096;8.716;2023-06-19T11:19:17;29.10;53.70
75161;DHT22;67232;50.096;8.716;2023-06-19T11:21:51;29.20;53.50
75161;DHT22;67232;50.096;8.716;2023-06-19T11:24:18;29.20;53.70
75161;DHT22;67232;50.096;8.716;2023-06-19T11:26:45;29.30;54.00
75161;DHT22;67232;50.096;8.716;2023-06-19T11:29:24;29.20;53.60
75161;DHT22;67232;50.096;8.716;2023-06-19T11:31:53;29.00;53.20
75161;DHT22;67232;50.096;8.716;2023-06-19T11:34:30;28.90;54.10
75161;DHT22;67232;50.096;8.716;2023-06-19T11:36:56;28.90;54.30
75161;DHT22;67232;50.096;8.716;2023-06-19T11:39:22;29.00;53.70
75161;DHT22;67232;50.096;8.716;2023-06-19T11:41:47;29.00;53.40
75161;DHT22;67232;50.096;8.716;2023-06-19T11:44:15;29.00;53.60
75161;DHT22;67232;50.096;8.716;2023-06-19T11:46:40;29.00;54.30
75161;DHT22;67232;50.096;8.716;2023-06-19T11:49:18;29.10;53.40
75161;DHT22;67232;50.096;8.716;2023-06-19T11:51:46;29.10;53.60
75161;DHT22;67232;50.096;8.716;2023-06-19T11:54:14;29.20;53.30
75161;DHT22;67232;50.096;8.716;2023-06-19T11:56:43;29.30;53.40
75161;DHT22;67232;50.096;8.716;2023-06-19T11:59:09;29.60;53.00
75161;DHT22;67232;50.096;8.716;2023-06-19T12:01:37;29.70;52.30
75161;DHT22;67232;50.096;8.716;2023-06-19T12:04:06;29.70;51.70
75161;DHT22;67232;50.096;8.716;2023-06-19T12:06:32;29.60;51.70
75161;DHT22;67232;50.096;8.716;2023-06-19T12:09:00;29.60;52.30
75161;DHT22;67232;50.096;8.716;2023-06-19T12:11:26;29.70;51.50
75161;DHT22;67232;50.096;8.716;2023-06-19T12:13:51;29.90;51.40
75161;DHT22;67232;50.096;8.716;2023-06-19T12:16:21;30.00;51.00
75161;DHT22;67232;50.096;8.716;2023-06-19T12:18:46;30.10;51.80
75161;DHT22;67232;50.096;8.716;2023-06-19T12:21:14;30.20;51.70
75161;DHT22;67232;50.096;8.716;2023-06-19T12:23:40;30.30;51.40
75161;DHT22;67232;50.096;8.716;2023-06-19T12:26:05;30.50;51.50
75161;DHT22;67232;50.096;8.716;2023-06-19T12:28:31;30.60;50.80
75161;DHT22;67232;50.096;8.716;2023-06-19T12:30:59;30.70;51.00
75161;DHT22;67232;50.096;8.716;2023-06-19T12:33:25;30.90;50.90
75161;DHT22;67232;50.096;8.716;2023-06-19T12:35:52;31.10;52.00
75161;DHT22;67232;50.096;8.716;2023-06-19T12:38:17;31.10;49.60
75161;DHT22;67232;50.096;8.716;2023-06-19T12:40:47;31.10;49.80
75161;DHT22;67232;50.096;8.716;2023-06-19T12:43:13;31.20;49.80
75161;DHT22;67232;50.096;8.716;2023-06-19T12:45:38;31.10;49.70
75161;DHT22;67232;50.096;8.716;2023-06-19T12:48:07;31.00;49.00
75161;DHT22;67232;50.096;8.716;2023-06-19T12:50:32;30.80;49.10
75161;DHT22;67232;50.096;8.716;2023-06-19T12:53:00;30.80;49.10
75161;DHT22;67232;50.096;8.716;2023-06-19T12:55:26;30.60;49.60
75161;DHT22;67232;50.096;8.716;2023-06-19T12:57:56;30.70;49.10
75161;DHT22;67232;50.096;8.716;2023-06-19T13:00:24;30.50;49.40
75161;DHT22;67232;50.096;8.716;2023-06-19T13:02:50;30.60;49.30
75161;DHT22;67232;50.096;8.716;2023-06-19T13:05:15;30.70;49.70
75161;DHT22;67232;50.096;8.716;2023-06-19T13:07:41;30.70;49.10
75161;DHT22;67232;50.096;8.716;2023-06-19T13:10:07;30.70;49.50
75161;DHT22;67232;50.096;8.716;2023-06-19T13:12:32;30.60;49.20
75161;DHT22;67232;50.096;8.716;2023-06-19T13:14:58;30.60;49.80
75161;DHT22;67232;50.096;8.716;2023-06-19T13:17:26;30.70;49.60
75161;DHT22;67232;50.096;8.716;2023-06-19T13:19:51;30.60;49.40
75161;DHT22;67232;50.096;8.716;2023-06-19T13:22:17;30.30;49.40
75161;DHT22;67232;50.096;8.716;2023-06-19T13:24:45;30.20;49.40
75161;DHT22;67232;50.096;8.716;2023-06-19T13:27:13;30.10;50.30
75161;DHT22;67232;50.096;8.716;2023-06-19T13:29:41;30.30;49.80
75161;DHT22;67232;50.096;8.716;2023-06-19T13:32:06;30.30;49.90
75161;DHT22;67232;50.096;8.716;2023-06-19T13:34:34;30.40;49.50
75161;DHT22;67232;50.096;8.716;2023-06-19T13:37:05;30.30;48.70
75161;DHT22;67232;50.096;8.716;2023-06-19T13:39:30;30.20;48.50
75161;DHT22;67232;50.096;8.716;2023-06-19T13:41:59;30.10;49.00
75161;DHT22;67232;50.096;8.716;2023-06-19T13:44:28;30.10;48.90
75161;DHT22;67232;50.096;8.716;2023-06-19T13:46:53;30.10;49.40
75161;DHT22;67232;50.096;8.716;2023-06-19T13:49:19;30.20;49.70
75161;DHT22;67232;50.096;8.716;2023-06-19T13:51:45;30.10;49.70
75161;DHT22;67232;50.096;8.716;2023-06-19T13:54:12;30.20;49.80
75161;DHT22;67232;50.096;8.716;2023-06-19T13:56:39;30.20;49.50
75161;DHT22;67232;50.096;8.716;2023-06-19T13:59:05;30.30;48.20
75161;DHT22;67232;50.096;8.716;2023-06-19T14:01:31;30.20;48.50
75161;DHT22;67232;50.096;8.716;2023-06-19T14:03:57;30.20;48.30
75161;DHT22;67232;50.096;8.716;2023-06-19T14:06:26;30.10;48.10
75161;DHT22;67232;50.096;8.716;2023-06-19T14:08:52;30.10;48.00
75161;DHT22;67232;50.096;8.716;2023-06-19T14:11:19;30.10;47.80
75161;DHT22;67232;50.096;8.716;2023-06-19T14:13:47;29.90;48.00
75161;DHT22;67232;50.096;8.716;2023-06-19T14:16:15;29.90;48.50
75161;DHT22;67232;50.096;8.716;2023-06-19T14:18:41;29.90;48.00
75161;DHT22;67232;50.096;8.716;2023-06-19T14:21:09;29.80;48.20
75161;DHT22;67232;50.096;8.716;2023-06-19T14:23:34;29.80;48.30
75161;DHT22;67232;50.096;8.716;2023-06-19T14:26:05;29.70;46.60
75161;DHT22;67232;50.096;8.716;2023-06-19T14:28:30;29.70;46.50
75161;DHT22;67232;50.096;8.716;2023-06-19T14:30:56;29.60;47.30
75161;DHT22;67232;50.096;8.716;2023-06-19T14:33:22;29.70;46.90
75161;DHT22;67232;50.096;8.716;2023-06-19T14:35:48;29.70;46.90
75161;DHT22;67232;50.096;8.716;2023-06-19T14:38:16;29.60;46.50
75161;DHT22;67232;50.096;8.716;2023-06-19T14:40:41;29.60;46.80
75161;DHT22;67232;50.096;8.716;2023-06-19T14:43:07;29.70;47.30
75161;DHT22;67232;50.096;8.716;2023-06-19T14:45:35;29.60;46.80
75161;DHT22;67232;50.096;8.716;2023-06-19T14:48:05;29.60;46.30
75161;DHT22;67232;50.096;8.716;2023-06-19T14:50:30;29.60;46.40
75161;DHT22;67232;50.096;8.716;2023-06-19T14:52:58;29.60;46.40
75161;DHT22;67232;50.096;8.716;2023-06-19T14:55:26;29.80;46.40
75161;DHT22;67232;50.096;8.716;2023-06-19T14:57:52;29.80;45.70
75161;DHT22;67232;50.096;8.716;2023-06-19T15:00:18;29.70;46.10
75161;DHT22;67232;50.096;8.716;2023-06-19T15:02:43;29.70;46.00
75161;DHT22;67232;50.096;8.716;2023-06-19T15:05:11;29.80;46.10
75161;DHT22;67232;50.096;8.716;2023-06-19T15:07:36;29.80;45.50
75161;DHT22;67232;50.096;8.716;2023-06-19T15:10:02;30.00;46.70
75161;DHT22;67232;50.096;8.716;2023-06-19T15:12:29;30.10;44.70
75161;DHT22;67232;50.096;8.716;2023-06-19T15:14:57;30.10;44.30
75161;DHT22;67232;50.096;8.716;2023-06-19T15:17:25;30.10;45.10
75161;DHT22;67232;50.096;8.716;2023-06-19T15:19:55;30.00;45.40
75161;DHT22;67232;50.096;8.716;2023-06-19T15:22:25;30.00;45.60
75161;DHT22;67232;50.096;8.716;2023-06-19T15:24:52;30.00;45.20
75161;DHT22;67232;50.096;8.716;2023-06-19T15:27:18;30.00;45.40
75161;DHT22;67232;50.096;8.716;2023-06-19T15:29:43;29.90;45.70
75161;DHT22;67232;50.096;8.716;2023-06-19T15:32:09;29.90;46.00